createdAt,value
2022-08-18T00:00:20.093Z,11.45
2022-08-18T00:00:52.601Z,10.70
2022-08-18T00:01:26.301Z,11.35
2022-08-18T00:02:08.684Z,10.18
2022-08-18T00:02:43.476Z,10.48
2022-08-18T00:03:56.612Z,11.07
2022-08-18T00:04:35.424Z,11.00
2022-08-18T00:05:09.429Z,10.57
2022-08-18T00:05:46.268Z,11.27
2022-08-18T00:06:19.153Z,10.00
2022-08-18T00:06:51.002Z,10.00
2022-08-18T00:07:24.695Z,11.07
2022-08-18T00:07:57.501Z,11.13
2022-08-18T00:08:29.359Z,11.38
2022-08-18T00:09:04.565Z,10.90
2022-08-18T00:09:39.069Z,10.05
2022-08-18T00:10:18.198Z,11.13
2022-08-18T00:10:50.883Z,11.32
2022-08-18T00:11:25.289Z,10.95
2022-08-18T00:11:57.278Z,9.85
2022-08-18T00:12:33.457Z,10.27
2022-08-18T00:13:05.322Z,10.55
2022-08-18T00:13:37.151Z,10.27
2022-08-18T00:14:13.860Z,11.18
2022-08-18T00:14:56.034Z,9.88
2022-08-18T00:15:28.068Z,10.98
2022-08-18T00:16:00.001Z,10.75
2022-08-18T00:16:31.941Z,10.82
2022-08-18T00:17:05.056Z,9.77
2022-08-18T00:17:37.854Z,10.82
2022-08-18T00:18:09.695Z,9.90
2022-08-18T00:18:43.583Z,15.45
2022-08-18T00:19:15.478Z,10.02
2022-08-18T00:19:48.557Z,10.00
2022-08-18T00:20:22.817Z,9.88
2022-08-18T00:20:54.767Z,11.57
2022-08-18T00:21:28.149Z,10.95
2022-08-18T00:22:00.068Z,11.35
2022-08-18T00:22:31.987Z,10.38
2022-08-18T00:23:04.833Z,11.02
2022-08-18T00:23:38.542Z,9.43
2022-08-18T00:24:10.568Z,11.80
2022-08-18T00:24:47.834Z,10.18
2022-08-18T00:25:22.266Z,10.70
2022-08-18T00:25:55.336Z,9.68
2022-08-18T00:26:32.303Z,10.63
2022-08-18T00:27:10.437Z,10.10
2022-08-18T00:27:43.355Z,9.82
2022-08-18T00:28:15.306Z,10.07
2022-08-18T00:28:48.125Z,13.10
2022-08-18T00:29:20.073Z,10.75
2022-08-18T00:29:53.451Z,8.93
2022-08-18T00:30:26.460Z,9.35
2022-08-18T00:30:58.320Z,11.35
2022-08-18T00:31:31.419Z,9.90
2022-08-18T00:32:13.350Z,9.05
2022-08-18T00:32:49.259Z,10.00
2022-08-18T00:33:21.112Z,9.05
2022-08-18T00:33:54.319Z,9.57
2022-08-18T00:34:26.247Z,10.27
2022-08-18T00:35:07.124Z,10.48
2022-08-18T00:35:40.623Z,9.15
2022-08-18T00:36:12.690Z,9.52
2022-08-18T00:36:44.677Z,9.35
2022-08-18T00:37:17.753Z,9.88
2022-08-18T00:37:49.692Z,9.32
2022-08-18T00:38:24.971Z,9.10
2022-08-18T00:38:58.417Z,9.75
2022-08-18T00:39:34.271Z,9.43
2022-08-18T00:40:12.081Z,12.68
2022-08-18T00:40:48.297Z,9.48
2022-08-18T00:41:21.538Z,11.52
2022-08-18T00:41:56.195Z,10.63
2022-08-18T00:42:30.653Z,11.40
2022-08-18T00:43:06.237Z,8.88
2022-08-18T00:43:43.998Z,9.85
2022-08-18T00:44:16.464Z,10.25
2022-08-18T00:44:49.193Z,9.82
2022-08-18T00:45:27.186Z,10.38
2022-08-18T00:45:59.223Z,10.15
2022-08-18T00:46:33.265Z,9.35
2022-08-18T00:47:06.449Z,9.93
2022-08-18T00:47:42.711Z,9.30
2022-08-18T00:48:16.335Z,11.07
2022-08-18T00:48:52.551Z,10.38
2022-08-18T00:49:24.401Z,8.18
2022-08-18T00:49:56.788Z,9.90
2022-08-18T00:50:34.657Z,9.75
2022-08-18T00:51:11.605Z,9.45
2022-08-18T00:51:48.019Z,8.68
2022-08-18T00:52:23.167Z,9.02
2022-08-18T00:53:00.648Z,8.32
2022-08-18T00:53:39.388Z,8.02
2022-08-18T00:54:16.933Z,9.10
2022-08-18T00:54:51.752Z,9.65
2022-08-18T00:55:24.950Z,9.02
2022-08-18T00:56:04.130Z,8.52
2022-08-18T00:56:42.303Z,10.55
2022-08-18T00:57:21.347Z,9.02
2022-08-18T00:58:00.378Z,8.82
2022-08-18T00:58:36.132Z,8.38
2022-08-18T00:59:12.332Z,8.20
2022-08-18T00:59:49.077Z,9.48
2022-08-18T01:00:22.175Z,9.75
2022-08-18T01:00:54.784Z,8.55
2022-08-18T01:01:32.236Z,9.18
2022-08-18T01:02:07.089Z,8.80
2022-08-18T01:02:43.945Z,8.60
2022-08-18T01:03:22.172Z,8.45
2022-08-18T01:04:00.510Z,8.13
2022-08-18T01:04:37.485Z,8.43
2022-08-18T01:05:22.403Z,8.13
2022-08-18T01:05:58.664Z,9.40
2022-08-18T01:06:37.185Z,8.38
2022-08-18T01:07:15.094Z,7.90
2022-08-18T01:07:50.294Z,7.47
2022-08-18T01:08:28.651Z,8.63
2022-08-18T01:09:03.143Z,7.63
2022-08-18T01:09:35.637Z,8.20
2022-08-18T01:10:08.607Z,8.07
2022-08-18T01:10:42.974Z,7.70
2022-08-18T01:11:14.862Z,8.48
2022-08-18T01:11:46.968Z,8.02
2022-08-18T01:12:44.483Z,8.63
2022-08-18T01:13:13.125Z,8.00
2022-08-18T01:13:45.402Z,9.07
2022-08-18T01:14:18.432Z,9.75
2022-08-18T01:14:50.321Z,7.90
2022-08-18T01:15:28.032Z,8.88
2022-08-18T01:16:24.719Z,9.27
2022-08-18T01:17:15.490Z,7.88
2022-08-18T01:18:06.653Z,7.70
2022-08-18T01:18:57.505Z,8.48
2022-08-18T01:19:48.554Z,8.32
2022-08-18T01:20:45.429Z,7.80
2022-08-18T01:21:42.497Z,9.00
2022-08-18T01:22:22.373Z,7.82
2022-08-18T01:23:04.598Z,11.57
2022-08-18T01:23:37.323Z,7.20
2022-08-18T01:24:12.899Z,9.48
2022-08-18T01:25:08.898Z,7.72
2022-08-18T01:25:59.840Z,8.90
2022-08-18T01:26:35.422Z,8.07
2022-08-18T01:27:07.243Z,7.55
2022-08-18T01:27:41.783Z,7.30
2022-08-18T01:28:18.355Z,8.00
2022-08-18T01:28:50.621Z,7.60
2022-08-18T01:29:22.502Z,7.45
2022-08-18T01:29:55.328Z,9.23
2022-08-18T01:30:27.161Z,7.90
2022-08-18T01:31:00.378Z,8.25
2022-08-18T01:31:38.286Z,8.23
2022-08-18T01:32:12.490Z,8.90
2022-08-18T01:32:45.861Z,8.23
2022-08-18T01:33:19.675Z,8.10
2022-08-18T01:33:51.497Z,8.77
2022-08-18T01:34:25.552Z,8.15
2022-08-18T01:34:58.618Z,8.25
2022-08-18T01:35:33.375Z,7.82
2022-08-18T01:36:16.652Z,7.93
2022-08-18T01:36:52.312Z,7.80
2022-08-18T01:37:25.092Z,7.43
2022-08-18T01:37:57.551Z,7.45
2022-08-18T01:38:32.376Z,8.57
2022-08-18T01:39:06.515Z,7.95
2022-08-18T01:41:11.166Z,7.93
2022-08-18T01:41:21.839Z,8.55
2022-08-18T01:41:30.463Z,8.52
2022-08-18T01:42:04.637Z,7.90
2022-08-18T01:42:37.538Z,7.60
2022-08-18T01:43:10.306Z,7.97
2022-08-18T01:43:43.385Z,7.40
2022-08-18T01:44:15.243Z,8.57
2022-08-18T01:44:51.147Z,7.70
2022-08-18T01:45:24.050Z,8.45
2022-08-18T01:45:57.534Z,9.40
2022-08-18T01:46:31.625Z,7.55
2022-08-18T01:47:04.952Z,8.45
2022-08-18T01:47:47.195Z,8.00
2022-08-18T01:48:21.210Z,7.72
2022-08-18T01:48:53.585Z,7.70
2022-08-18T01:49:28.666Z,8.20
2022-08-18T01:50:01.026Z,7.57
2022-08-18T01:50:35.155Z,8.70
2022-08-18T01:51:10.183Z,7.68
2022-08-18T01:51:42.589Z,9.07
2022-08-18T01:52:20.858Z,8.10
2022-08-18T01:52:53.889Z,8.70
2022-08-18T01:53:26.561Z,8.07
2022-08-18T01:54:01.570Z,8.18
2022-08-18T01:54:33.897Z,7.97
2022-08-18T01:55:09.087Z,8.98
2022-08-18T01:55:45.153Z,8.55
2022-08-18T01:56:17.684Z,8.32
2022-08-18T01:56:52.509Z,8.30
2022-08-18T01:57:24.967Z,8.20
2022-08-18T01:57:56.869Z,8.70
2022-08-18T01:58:31.729Z,7.72
2022-08-18T01:59:04.308Z,7.90
2022-08-18T01:59:36.166Z,7.00
2022-08-18T02:00:10.496Z,8.23
2022-08-18T02:00:44.474Z,7.63
2022-08-18T02:01:16.426Z,7.40
2022-08-18T02:01:52.887Z,8.55
2022-08-18T02:02:27.939Z,8.40
2022-08-18T02:03:02.663Z,7.15
2022-08-18T02:03:40.372Z,8.68
2022-08-18T02:04:33.917Z,8.00
2022-08-18T02:05:10.638Z,8.35
2022-08-18T02:05:49.377Z,7.85
2022-08-18T02:06:32.157Z,7.30
2022-08-18T02:07:09.507Z,6.90
2022-08-18T02:07:41.452Z,7.45
2022-08-18T02:08:15.372Z,7.65
2022-08-18T02:08:53.545Z,7.65
2022-08-18T02:09:27.811Z,8.55
2022-08-18T02:10:01.469Z,8.20
2022-08-18T02:10:35.372Z,10.70
2022-08-18T02:11:07.907Z,7.60
2022-08-18T02:11:39.796Z,7.93
2022-08-18T02:12:12.617Z,8.05
2022-08-18T02:12:44.470Z,7.90
2022-08-18T02:13:16.378Z,7.45
2022-08-18T02:13:49.200Z,8.15
2022-08-18T02:14:26.891Z,8.73
2022-08-18T02:14:59.392Z,9.13
2022-08-18T02:15:33.076Z,8.25
2022-08-18T02:16:05.383Z,8.73
2022-08-18T02:16:37.253Z,8.52
2022-08-18T02:17:12.105Z,8.77
2022-08-18T02:17:46.675Z,8.52
2022-08-18T02:18:25.083Z,7.60
2022-08-18T02:19:14.665Z,7.35
2022-08-18T02:19:47.831Z,8.40
2022-08-18T02:20:20.081Z,8.50
2022-08-18T02:20:52.886Z,8.55
2022-08-18T02:21:24.724Z,7.90
2022-08-18T02:21:56.727Z,7.30
2022-08-18T02:22:28.831Z,16.52
2022-08-18T02:23:03.176Z,8.18
2022-08-18T02:23:35.351Z,7.85
2022-08-18T02:24:07.266Z,7.22
2022-08-18T02:24:42.454Z,8.18
2022-08-18T02:25:15.675Z,7.82
2022-08-18T02:25:47.535Z,8.55
2022-08-18T02:26:20.477Z,8.15
2022-08-18T02:26:52.335Z,7.95
2022-08-18T02:27:24.186Z,8.25
2022-08-18T02:27:58.078Z,7.00
2022-08-18T02:28:30.764Z,7.70
2022-08-18T02:29:02.778Z,8.43
2022-08-18T02:29:36.562Z,7.97
2022-08-18T02:30:12.428Z,7.25
2022-08-18T02:30:44.278Z,7.60
2022-08-18T02:31:19.719Z,8.05
2022-08-18T02:31:51.639Z,9.85
2022-08-18T02:32:23.486Z,7.30
2022-08-18T02:32:59.078Z,7.30
2022-08-18T02:33:30.981Z,8.55
2022-08-18T02:34:02.883Z,6.57
2022-08-18T02:34:36.282Z,7.80
2022-08-18T02:35:11.861Z,7.82
2022-08-18T02:35:46.110Z,7.13
2022-08-18T02:36:19.426Z,7.57
2022-08-18T02:36:51.705Z,7.60
2022-08-18T02:37:23.612Z,7.40
2022-08-18T02:37:59.219Z,6.70
2022-08-18T02:38:31.079Z,7.65
2022-08-18T02:39:05.326Z,7.35
2022-08-18T02:39:38.863Z,6.93
2022-08-18T02:40:14.924Z,7.25
2022-08-18T02:40:47.508Z,7.30
2022-08-18T02:41:20.576Z,8.00
2022-08-18T02:41:53.400Z,7.45
2022-08-18T02:42:25.662Z,7.50
2022-08-18T02:42:58.446Z,7.15
2022-08-18T02:43:33.785Z,7.50
2022-08-18T02:44:08.641Z,7.72
2022-08-18T02:44:41.969Z,7.57
2022-08-18T02:45:14.597Z,7.22
2022-08-18T02:45:46.430Z,7.68
2022-08-18T02:46:19.523Z,6.68
2022-08-18T02:46:54.004Z,7.70
2022-08-18T02:47:29.103Z,8.15
2022-08-18T02:48:05.357Z,9.23
2022-08-18T02:48:37.340Z,7.00
2022-08-18T02:49:09.498Z,7.00
2022-08-18T02:49:42.366Z,7.10
2022-08-18T02:50:14.337Z,7.22
2022-08-18T02:50:46.618Z,8.25
2022-08-18T02:51:19.602Z,7.03
2022-08-18T02:51:52.473Z,6.47
2022-08-18T02:52:26.288Z,7.20
2022-08-18T02:52:59.107Z,7.93
2022-08-18T02:53:31.427Z,6.88
2022-08-18T02:54:03.585Z,7.03
2022-08-18T02:54:36.516Z,8.40
2022-08-18T02:55:10.001Z,7.05
2022-08-18T02:55:43.178Z,7.35
2022-08-18T02:56:33.034Z,7.30
2022-08-18T02:57:12.999Z,7.00
2022-08-18T02:57:46.596Z,7.20
2022-08-18T02:58:20.424Z,7.40
2022-08-18T02:58:54.715Z,6.20
2022-08-18T02:59:28.066Z,6.15
2022-08-18T03:00:05.557Z,7.70
2022-08-18T03:00:38.946Z,7.10
2022-08-18T03:01:10.972Z,6.63
2022-08-18T03:01:47.677Z,7.03
2022-08-18T03:02:20.066Z,8.13
2022-08-18T03:02:54.482Z,7.32
2022-08-18T03:03:27.286Z,7.38
2022-08-18T03:04:00.276Z,8.80
2022-08-18T03:04:32.522Z,8.15
2022-08-18T03:05:05.934Z,7.28
2022-08-18T03:05:37.834Z,6.47
2022-08-18T03:06:09.852Z,6.95
2022-08-18T03:06:44.368Z,7.55
2022-08-18T03:07:17.678Z,6.85
2022-08-18T03:07:51.041Z,7.18
2022-08-18T03:08:24.081Z,8.10
2022-08-18T03:08:56.244Z,7.47
2022-08-18T03:09:29.387Z,7.28
2022-08-18T03:10:31.424Z,6.40
2022-08-18T03:10:55.377Z,6.47
2022-08-18T03:11:29.065Z,6.45
2022-08-18T03:12:02.432Z,8.00
2022-08-18T03:12:34.250Z,7.57
2022-08-18T03:13:06.232Z,6.65
2022-08-18T03:13:39.212Z,6.47
2022-08-18T03:14:11.704Z,6.63
2022-08-18T03:14:44.716Z,7.13
2022-08-18T03:15:16.638Z,7.32
2022-08-18T03:15:51.167Z,7.32
2022-08-18T03:16:27.666Z,7.13
2022-08-18T03:16:59.958Z,6.55
2022-08-18T03:17:35.917Z,6.53
2022-08-18T03:18:07.745Z,6.90
2022-08-18T03:18:41.326Z,6.68
2022-08-18T03:19:16.142Z,7.13
2022-08-18T03:19:48.068Z,6.53
2022-08-18T03:20:19.934Z,7.40
2022-08-18T03:21:07.588Z,6.65
2022-08-18T03:21:39.602Z,6.93
2022-08-18T03:22:28.033Z,7.90
2022-08-18T03:23:05.560Z,6.28
2022-08-18T03:23:41.790Z,6.72
2022-08-18T03:24:19.326Z,6.97
2022-08-18T03:24:55.490Z,6.45
2022-08-18T03:25:27.349Z,7.10
2022-08-18T03:26:00.544Z,6.70
2022-08-18T03:26:34.311Z,7.40
2022-08-18T03:27:07.205Z,6.85
2022-08-18T03:27:40.025Z,6.40
2022-08-18T03:28:12.467Z,6.93
2022-08-18T03:28:47.707Z,6.20
2022-08-18T03:29:20.994Z,6.50
2022-08-18T03:29:53.445Z,6.97
2022-08-18T03:30:26.289Z,6.68
2022-08-18T03:30:58.154Z,7.50
2022-08-18T03:31:31.330Z,7.80
2022-08-18T03:32:05.629Z,6.18
2022-08-18T03:32:37.481Z,7.78
2022-08-18T03:33:09.361Z,6.00
2022-08-18T03:33:42.605Z,6.70
2022-08-18T03:34:15.076Z,6.65
2022-08-18T03:34:46.922Z,6.05
2022-08-18T03:35:19.859Z,6.80
2022-08-18T03:35:52.282Z,7.30
2022-08-18T03:36:27.405Z,5.57
2022-08-18T03:36:59.866Z,6.75
2022-08-18T03:37:32.021Z,6.88
2022-08-18T03:38:05.036Z,7.20
2022-08-18T03:38:36.919Z,7.30
2022-08-18T03:39:10.903Z,8.15
2022-08-18T03:39:43.938Z,6.70
2022-08-18T03:40:15.917Z,6.35
2022-08-18T03:40:51.874Z,7.15
2022-08-18T03:41:43.805Z,6.95
2022-08-18T03:42:20.430Z,6.97
2022-08-18T03:42:53.565Z,6.07
2022-08-18T03:43:49.707Z,6.60
2022-08-18T03:44:19.765Z,5.93
2022-08-18T03:44:52.299Z,7.35
2022-08-18T03:45:24.344Z,6.35
2022-08-18T03:46:00.037Z,6.97
2022-08-18T03:46:32.943Z,7.47
2022-08-18T03:47:08.746Z,7.05
2022-08-18T03:47:40.726Z,6.85
2022-08-18T03:48:13.544Z,6.25
2022-08-18T03:48:47.237Z,6.82
2022-08-18T03:49:20.688Z,6.47
2022-08-18T03:49:53.858Z,7.18
2022-08-18T03:50:25.798Z,6.15
2022-08-18T03:51:05.388Z,7.40
2022-08-18T03:51:39.090Z,5.93
2022-08-18T03:52:11.107Z,7.40
2022-08-18T03:52:42.938Z,6.20
2022-08-18T03:53:15.996Z,6.57
2022-08-18T03:53:49.234Z,6.07
2022-08-18T03:54:21.489Z,7.15
2022-08-18T03:54:54.668Z,6.70
2022-08-18T03:55:27.714Z,6.28
2022-08-18T03:55:59.594Z,6.32
2022-08-18T03:56:38.134Z,6.88
2022-08-18T03:57:12.341Z,6.40
2022-08-18T03:57:44.470Z,7.07
2022-08-18T03:58:16.393Z,7.13
2022-08-18T03:58:51.518Z,6.60
2022-08-18T03:59:26.042Z,6.57
2022-08-18T03:59:57.914Z,6.43
2022-08-18T04:00:31.619Z,6.35
2022-08-18T04:01:03.631Z,7.20
2022-08-18T04:01:39.242Z,7.40
2022-08-18T04:02:13.091Z,6.10
2022-08-18T04:02:44.958Z,6.55
2022-08-18T04:03:16.808Z,6.28
2022-08-18T04:03:52.164Z,6.65
2022-08-18T04:04:28.664Z,7.05
2022-08-18T04:05:00.703Z,6.22
2022-08-18T04:05:34.891Z,5.45
2022-08-18T04:06:12.134Z,7.25
2022-08-18T04:06:50.001Z,6.47
2022-08-18T04:07:21.878Z,6.25
2022-08-18T04:07:54.684Z,6.88
2022-08-18T04:08:26.621Z,6.25
2022-08-18T04:09:00.594Z,7.03
2022-08-18T04:09:34.682Z,6.10
2022-08-18T04:10:07.416Z,5.93
2022-08-18T04:10:51.873Z,6.32
2022-08-18T04:11:25.602Z,6.90
2022-08-18T04:12:03.643Z,6.85
2022-08-18T04:12:38.470Z,7.43
2022-08-18T04:13:11.752Z,6.60
2022-08-18T04:13:43.610Z,6.43
2022-08-18T04:14:18.437Z,6.78
2022-08-18T04:14:51.779Z,7.68
2022-08-18T04:15:23.609Z,6.43
2022-08-18T04:15:58.917Z,6.68
2022-08-18T04:16:32.592Z,7.40
2022-08-18T04:17:05.573Z,6.68
2022-08-18T04:18:06.012Z,6.22
2022-08-18T04:18:29.672Z,5.60
2022-08-18T04:19:03.251Z,7.25
2022-08-18T04:19:35.583Z,6.65
2022-08-18T04:20:08.352Z,6.80
2022-08-18T04:20:59.214Z,6.45
2022-08-18T04:21:33.502Z,7.35
2022-08-18T04:22:06.971Z,6.38
2022-08-18T04:22:39.980Z,6.97
2022-08-18T04:23:11.901Z,5.85
2022-08-18T04:23:44.411Z,6.40
2022-08-18T04:24:17.517Z,6.82
2022-08-18T04:24:50.167Z,5.53
2022-08-18T04:25:23.702Z,6.53
2022-08-18T04:25:59.592Z,7.18
2022-08-18T04:26:32.619Z,6.85
2022-08-18T04:27:07.243Z,7.53
2022-08-18T04:27:42.130Z,8.10
2022-08-18T04:28:13.957Z,6.55
2022-08-18T04:28:47.344Z,5.28
2022-08-18T04:29:21.212Z,6.32
2022-08-18T04:29:56.600Z,6.57
2022-08-18T04:30:29.577Z,7.18
2022-08-18T04:31:07.017Z,6.45
2022-08-18T04:31:43.570Z,7.13
2022-08-18T04:32:15.470Z,6.68
2022-08-18T04:32:47.335Z,6.30
2022-08-18T04:33:20.320Z,6.72
2022-08-18T04:33:52.425Z,6.70
2022-08-18T04:34:24.268Z,6.90
2022-08-18T04:34:57.351Z,6.25
2022-08-18T04:35:31.291Z,6.95
2022-08-18T04:36:09.237Z,6.40
2022-08-18T04:36:43.059Z,7.63
2022-08-18T04:37:15.568Z,6.75
2022-08-18T04:37:47.426Z,6.93
2022-08-18T04:38:20.274Z,6.40
2022-08-18T04:38:52.131Z,6.25
2022-08-18T04:39:29.181Z,6.22
2022-08-18T04:40:02.274Z,6.65
2022-08-18T04:40:34.289Z,6.20
2022-08-18T04:41:06.620Z,7.10
2022-08-18T04:41:43.350Z,6.45
2022-08-18T04:42:16.862Z,6.78
2022-08-18T04:42:50.026Z,7.78
2022-08-18T04:43:21.905Z,6.82
2022-08-18T04:43:54.140Z,7.10
2022-08-18T04:44:26.966Z,7.25
2022-08-18T04:44:58.961Z,7.10
2022-08-18T04:45:30.842Z,6.32
2022-08-18T04:46:03.691Z,7.10
2022-08-18T04:46:36.939Z,7.55
2022-08-18T04:47:10.693Z,10.60
2022-08-18T04:47:43.069Z,10.38
2022-08-18T04:48:17.673Z,7.72
2022-08-18T04:48:50.843Z,7.68
2022-08-18T04:49:25.957Z,8.32
2022-08-18T04:49:58.178Z,7.63
2022-08-18T04:50:32.765Z,7.45
2022-08-18T04:51:09.697Z,7.40
2022-08-18T04:52:37.267Z,7.75
2022-08-18T04:52:54.280Z,7.35
2022-08-18T04:53:44.749Z,7.07
2022-08-18T04:54:17.559Z,7.93
2022-08-18T04:54:49.450Z,6.45
2022-08-18T04:55:21.265Z,7.20
2022-08-18T04:55:55.294Z,6.75
2022-08-18T04:56:30.758Z,7.15
2022-08-18T04:57:08.691Z,6.97
2022-08-18T04:57:42.525Z,7.75
2022-08-18T04:58:16.359Z,7.70
2022-08-18T04:58:52.133Z,8.02
2022-08-18T04:59:25.357Z,7.35
2022-08-18T04:59:59.012Z,6.90
2022-08-18T05:00:30.866Z,6.63
2022-08-18T05:01:02.810Z,7.50
2022-08-18T05:01:42.019Z,6.85
2022-08-18T05:02:15.387Z,6.82
2022-08-18T05:02:47.213Z,6.90
2022-08-18T05:03:20.685Z,7.20
2022-08-18T05:03:54.133Z,7.53
2022-08-18T05:04:28.676Z,6.47
2022-08-18T05:05:03.807Z,7.43
2022-08-18T05:05:36.169Z,8.07
2022-08-18T05:06:08.280Z,6.30
2022-08-18T05:06:42.510Z,7.30
2022-08-18T05:07:17.161Z,7.55
2022-08-18T05:07:49.913Z,7.28
2022-08-18T05:08:23.319Z,6.97
2022-08-18T05:08:58.777Z,7.30
2022-08-18T05:09:31.948Z,7.70
2022-08-18T05:10:14.121Z,7.35
2022-08-18T05:10:47.295Z,6.78
2022-08-18T05:11:21.258Z,7.00
2022-08-18T05:11:54.181Z,6.82
2022-08-18T05:12:26.793Z,6.40
2022-08-18T05:13:00.090Z,6.53
2022-08-18T05:13:32.902Z,7.78
2022-08-18T05:14:08.227Z,7.30
2022-08-18T05:14:41.346Z,7.00
2022-08-18T05:15:14.220Z,7.25
2022-08-18T05:16:09.068Z,6.70
2022-08-18T05:16:44.274Z,6.70
2022-08-18T05:17:21.348Z,7.72
2022-08-18T05:17:53.461Z,7.78
2022-08-18T05:18:26.882Z,6.68
2022-08-18T05:18:59.584Z,8.10
2022-08-18T05:19:35.627Z,6.22
2022-08-18T05:20:15.034Z,6.75
2022-08-18T05:20:51.865Z,7.13
2022-08-18T05:21:25.138Z,7.40
2022-08-18T05:22:00.617Z,7.45
2022-08-18T05:22:39.133Z,6.57
2022-08-18T05:23:11.108Z,6.30
2022-08-18T05:23:44.230Z,6.50
2022-08-18T05:24:16.156Z,6.20
2022-08-18T05:24:48.480Z,5.70
2022-08-18T05:25:21.309Z,6.95
2022-08-18T05:25:58.193Z,7.40
2022-08-18T05:26:30.004Z,6.63
2022-08-18T05:27:03.496Z,6.82
2022-08-18T05:27:37.794Z,6.78
2022-08-18T05:28:11.050Z,7.68
2022-08-18T05:28:44.269Z,7.88
2022-08-18T05:29:17.774Z,6.82
2022-08-18T05:29:52.092Z,6.97
2022-08-18T05:30:24.022Z,7.32
2022-08-18T05:30:56.943Z,6.07
2022-08-18T05:31:34.119Z,6.53
2022-08-18T05:32:07.715Z,6.88
2022-08-18T05:32:49.149Z,7.70
2022-08-18T05:33:22.693Z,6.65
2022-08-18T05:33:55.785Z,7.00
2022-08-18T05:34:27.747Z,6.45
2022-08-18T05:35:05.008Z,6.38
2022-08-18T05:35:42.475Z,6.75
2022-08-18T05:36:38.538Z,6.40
2022-08-18T05:37:23.680Z,6.50
2022-08-18T05:38:25.714Z,7.03
2022-08-18T05:39:04.717Z,6.80
2022-08-18T05:39:46.438Z,5.88
2022-08-18T05:40:24.248Z,6.53
2022-08-18T05:41:06.557Z,6.80
2022-08-18T05:41:42.328Z,8.15
2022-08-18T05:42:17.728Z,5.80
2022-08-18T05:42:49.673Z,5.90
2022-08-18T05:43:23.852Z,6.38
2022-08-18T05:43:57.394Z,6.05
2022-08-18T05:44:31.200Z,6.30
2022-08-18T05:45:09.624Z,6.75
2022-08-18T05:45:42.345Z,7.00
2022-08-18T05:46:14.853Z,5.93
2022-08-18T05:46:52.378Z,7.32
2022-08-18T05:47:26.014Z,7.07
2022-08-18T05:47:59.797Z,6.63
2022-08-18T05:48:32.822Z,6.55
2022-08-18T05:49:05.069Z,7.45
2022-08-18T05:49:38.922Z,6.57
2022-08-18T05:50:13.016Z,6.18
2022-08-18T05:50:44.885Z,6.10
2022-08-18T05:51:27.344Z,6.70
2022-08-18T05:52:01.736Z,6.07
2022-08-18T05:52:36.848Z,5.63
2022-08-18T05:53:15.520Z,6.53
2022-08-18T05:54:05.992Z,6.97
2022-08-18T05:55:01.003Z,7.38
2022-08-18T05:55:55.148Z,6.60
2022-08-18T05:56:47.798Z,5.82
2022-08-18T05:57:23.287Z,6.32
2022-08-18T05:58:00.018Z,6.38
2022-08-18T05:58:37.766Z,6.35
2022-08-18T05:59:13.227Z,6.88
2022-08-18T05:59:47.929Z,5.97
2022-08-18T06:00:23.285Z,6.28
2022-08-18T06:01:00.229Z,6.32
2022-08-18T06:01:41.386Z,6.80
2022-08-18T06:02:18.017Z,5.85
2022-08-18T06:02:57.199Z,5.97
2022-08-18T06:03:45.137Z,7.40
2022-08-18T06:04:27.055Z,9.50
2022-08-18T06:05:04.489Z,8.20
2022-08-18T06:05:44.706Z,7.47
2022-08-18T06:06:20.402Z,6.78
2022-08-18T06:06:56.291Z,7.47
2022-08-18T06:07:34.177Z,6.80
2022-08-18T06:08:10.681Z,6.03
2022-08-18T06:08:46.981Z,7.22
2022-08-18T06:09:23.424Z,6.75
2022-08-18T06:09:56.266Z,6.25
2022-08-18T06:10:28.315Z,6.28
2022-08-18T06:11:00.245Z,6.90
2022-08-18T06:11:33.262Z,6.13
2022-08-18T06:12:19.674Z,6.88
2022-08-18T06:12:55.141Z,7.13
2022-08-18T06:13:27.009Z,6.47
2022-08-18T06:14:01.274Z,6.38
2022-08-18T06:14:33.117Z,6.78
2022-08-18T06:15:11.015Z,6.40
2022-08-18T06:15:48.667Z,6.93
2022-08-18T06:16:32.905Z,6.60
2022-08-18T06:17:19.756Z,6.93
2022-08-18T06:18:21.703Z,7.22
2022-08-18T06:19:02.133Z,7.70
2022-08-18T06:19:44.180Z,6.60
2022-08-18T06:20:26.260Z,6.18
2022-08-18T06:21:17.636Z,6.85
2022-08-18T06:21:57.077Z,6.43
2022-08-18T06:22:37.517Z,6.60
2022-08-18T06:23:32.489Z,6.60
2022-08-18T06:24:18.768Z,6.10
2022-08-18T06:24:58.941Z,6.78
2022-08-18T06:25:38.394Z,6.65
2022-08-18T06:26:18.068Z,6.55
2022-08-18T06:26:59.376Z,6.57
2022-08-18T06:27:41.320Z,6.57
2022-08-18T06:28:15.837Z,6.35
2022-08-18T06:28:57.658Z,7.60
2022-08-18T06:29:47.252Z,6.40
2022-08-18T06:30:22.641Z,6.30
2022-08-18T06:31:02.747Z,6.82
2022-08-18T06:31:42.273Z,7.80
2022-08-18T06:32:28.110Z,6.75
2022-08-18T06:33:14.630Z,6.00
2022-08-18T06:33:58.449Z,6.32
2022-08-18T06:34:42.445Z,6.80
2022-08-18T06:35:19.622Z,6.13
2022-08-18T06:36:02.562Z,6.63
2022-08-18T06:36:42.908Z,6.78
2022-08-18T06:37:23.633Z,6.20
2022-08-18T06:38:23.730Z,6.60
2022-08-18T06:39:05.522Z,6.55
2022-08-18T06:39:46.002Z,11.02
2022-08-18T06:40:17.958Z,12.85
2022-08-18T06:40:51.334Z,19.15
2022-08-18T06:41:40.526Z,20.30
2022-08-18T06:42:18.989Z,18.25
2022-08-18T06:42:50.822Z,10.68
2022-08-18T06:43:23.057Z,10.65
2022-08-18T06:44:00.472Z,9.07
2022-08-18T06:44:38.954Z,8.57
2022-08-18T06:45:13.842Z,6.97
2022-08-18T06:45:52.049Z,8.88
2022-08-18T06:46:33.147Z,7.55
2022-08-18T06:47:12.271Z,6.68
2022-08-18T06:47:52.981Z,7.05
2022-08-18T06:48:30.781Z,6.55
2022-08-18T06:49:08.761Z,7.20
2022-08-18T06:49:46.586Z,6.80
2022-08-18T06:50:22.989Z,6.25
2022-08-18T06:51:00.277Z,8.75
2022-08-18T06:51:33.759Z,7.68
2022-08-18T06:52:28.982Z,6.47
2022-08-18T06:53:03.813Z,7.10
2022-08-18T06:53:54.798Z,7.18
2022-08-18T06:54:31.016Z,7.55
2022-08-18T06:55:06.933Z,6.40
2022-08-18T06:55:40.742Z,7.22
2022-08-18T06:56:25.882Z,6.38
2022-08-18T06:56:58.870Z,6.72
2022-08-18T06:57:34.594Z,6.50
2022-08-18T06:58:22.465Z,8.38
2022-08-18T06:58:55.261Z,6.70
2022-08-18T06:59:31.337Z,7.43
2022-08-18T07:00:19.970Z,6.90
2022-08-18T07:00:58.148Z,6.95
2022-08-18T07:01:33.714Z,7.40
2022-08-18T07:02:20.801Z,10.85
2022-08-18T07:02:58.238Z,11.90
2022-08-18T07:03:48.595Z,9.18
2022-08-18T07:04:40.914Z,6.65
2022-08-18T07:05:20.353Z,6.78
2022-08-18T07:06:01.475Z,7.00
2022-08-18T07:06:33.638Z,6.53
2022-08-18T07:07:29.900Z,7.63
2022-08-18T07:08:16.002Z,9.18
2022-08-18T07:08:53.496Z,7.63
2022-08-18T07:09:32.900Z,6.63
2022-08-18T07:10:07.705Z,7.28
2022-08-18T07:10:43.362Z,7.18
2022-08-18T07:11:21.366Z,7.25
2022-08-18T07:12:02.469Z,9.40
2022-08-18T07:12:35.825Z,7.18
2022-08-18T07:13:15.394Z,8.18
2022-08-18T07:14:03.689Z,6.88
2022-08-18T07:14:51.345Z,7.82
2022-08-18T07:15:25.108Z,7.25
2022-08-18T07:16:23.156Z,8.50
2022-08-18T07:17:08.318Z,7.45
2022-08-18T07:17:44.040Z,7.28
2022-08-18T07:18:23.271Z,8.13
2022-08-18T07:19:07.569Z,7.57
2022-08-18T07:19:39.513Z,7.55
2022-08-18T07:20:21.532Z,9.55
2022-08-18T07:20:56.156Z,8.25
2022-08-18T07:21:30.671Z,9.65
2022-08-18T07:22:07.644Z,8.23
2022-08-18T07:22:53.443Z,7.82
2022-08-18T07:23:31.770Z,8.45
2022-08-18T07:24:24.297Z,9.18
2022-08-18T07:25:05.074Z,7.97
2022-08-18T07:25:41.085Z,7.80
2022-08-18T07:26:15.963Z,6.68
2022-08-18T07:27:04.103Z,8.20
2022-08-18T07:27:45.414Z,8.25
2022-08-18T07:28:29.727Z,8.23
2022-08-18T07:29:14.078Z,8.07
2022-08-18T07:30:01.602Z,7.32
2022-08-18T07:30:37.479Z,9.10
2022-08-18T07:31:18.177Z,8.40
2022-08-18T07:31:53.779Z,6.47
2022-08-18T07:32:34.454Z,8.77
2022-08-18T07:33:12.996Z,7.10
2022-08-18T07:33:51.348Z,7.88
2022-08-18T07:34:28.646Z,6.65
2022-08-18T07:35:03.593Z,8.43
2022-08-18T07:35:40.333Z,7.10
2022-08-18T07:36:15.877Z,7.35
2022-08-18T07:36:54.852Z,7.43
2022-08-18T07:37:33.354Z,8.30
2022-08-18T07:38:40.949Z,7.00
2022-08-18T07:39:16.431Z,7.15
2022-08-18T07:39:55.715Z,7.78
2022-08-18T07:40:32.920Z,7.13
2022-08-18T07:41:09.852Z,7.35
2022-08-18T07:41:49.055Z,7.50
2022-08-18T07:42:53.817Z,8.30
2022-08-18T07:43:30.055Z,8.38
2022-08-18T07:44:18.529Z,8.15
2022-08-18T07:44:59.420Z,7.40
2022-08-18T07:45:37.029Z,7.95
2022-08-18T07:46:13.489Z,10.15
2022-08-18T07:46:52.805Z,11.23
2022-08-18T07:47:31.602Z,8.48
2022-08-18T07:48:34.867Z,8.00
2022-08-18T07:49:05.522Z,9.55
2022-08-18T07:49:46.049Z,7.80
2022-08-18T07:50:57.909Z,7.00
2022-08-18T07:51:45.527Z,8.15
2022-08-18T07:52:36.186Z,7.78
2022-08-18T07:53:34.711Z,18.67
2022-08-18T07:54:37.717Z,17.23
2022-08-18T07:55:16.290Z,10.35
2022-08-18T07:55:55.905Z,8.85
2022-08-18T07:56:43.731Z,9.93
2022-08-18T07:57:25.668Z,8.35
2022-08-18T07:58:07.013Z,8.07
2022-08-18T07:58:47.166Z,10.43
2022-08-18T07:59:26.919Z,9.10
2022-08-18T08:00:11.253Z,7.93
2022-08-18T08:01:04.345Z,9.38
2022-08-18T08:01:42.158Z,9.00
2022-08-18T08:02:31.971Z,8.23
2022-08-18T08:03:16.269Z,9.50
2022-08-18T08:03:59.343Z,6.93
2022-08-18T08:04:39.671Z,9.50